Time;durP1;ratioP1;P1;durP2;ratioP2;P2;SDS_P1;SDS_P2;PMS_P1;PMS_P2;Temp;Humidity;BMP_temperature;BMP_pressure;BME280_temperature;BME280_humidity;BME280_pressure;Samples;Min_cycle;Max_cycle;Signal;HPM_P1;HPM_P2
2023/01/08 00:00:31;;;;;;;;;4.33;4.33;;;;;13.16;69.67;99983.81;2109584;27;46564;-62
2023/01/08 00:01:31;;;;;;;;;6.00;5.00;;;;;13.15;69.89;99990.09;2112735;27;46313;-63
2023/01/08 00:02:31;;;;;;;;;5.00;5.00;;;;;13.15;69.73;99981.22;2103197;28;46508;-62
2023/01/08 00:03:32;;;;;;;;;9.00;7.00;;;;;13.13;69.85;99981.31;2099644;28;46627;-62
2023/01/08 00:04:33;;;;;;;;;5.50;5.50;;;;;13.13;70.00;99973.31;2100111;28;46819;-62
2023/01/08 00:05:33;;;;;;;;;6.00;6.00;;;;;13.13;69.89;99975.97;2096707;28;45902;-62
2023/01/08 00:06:34;;;;;;;;;7.00;7.00;;;;;13.13;69.94;99978.63;2087472;28;45498;-63
2023/01/08 00:07:34;;;;;;;;;5.00;5.00;;;;;13.13;69.59;99977.78;2093837;28;45910;-62
2023/01/08 00:08:34;;;;;;;;;7.00;7.00;;;;;13.13;69.69;99969.78;2095567;28;45231;-62
2023/01/08 00:09:35;;;;;;;;;5.67;4.00;;;;;13.13;69.63;99973.31;2104821;28;46407;-64
2023/01/08 00:10:37;;;;;;;;;6.33;6.33;;;;;13.13;69.79;99973.31;2096856;28;46157;-64
2023/01/08 00:11:37;;;;;;;;;9.00;6.75;;;;;13.12;69.57;99960.94;2095993;28;45932;-62
2023/01/08 00:12:38;;;;;;;;;7.67;7.67;;;;;13.12;69.69;99966.25;2104669;28;47033;-63
2023/01/08 00:13:38;;;;;;;;;6.33;5.33;;;;;13.14;69.64;99967.03;2095840;28;46396;-63
2023/01/08 00:14:39;;;;;;;;;6.00;5.00;;;;;13.13;69.63;99965.31;2095729;28;46905;-62
2023/01/08 00:15:39;;;;;;;;;5.67;5.67;;;;;13.14;69.68;99960.84;2104991;28;46292;-63
2023/01/08 00:16:39;;;;;;;;;8.67;8.00;;;;;13.14;69.68;99961.72;2104579;28;46775;-63
2023/01/08 00:17:40;;;;;;;;;6.00;6.00;;;;;13.15;69.51;99960.78;2103562;28;46507;-64
2023/01/08 00:18:40;;;;;;;;;9.33;9.33;;;;;13.16;69.45;99956.31;2099723;28;46147;-62
2023/01/08 00:19:41;;;;;;;;;7.67;6.33;;;;;13.15;69.83;99958.13;2104497;28;46162;-63
2023/01/08 00:20:43;;;;;;;;;7.75;7.75;;;;;13.15;69.47;99963.44;2095596;28;46565;-62
2023/01/08 00:21:43;;;;;;;;;9.00;7.00;;;;;13.16;69.50;99961.66;2096126;28;45710;-63
2023/01/08 00:22:47;;;;;;;;;8.33;8.33;;;;;13.16;69.55;99945.66;2097577;28;46458;-62
2023/01/08 00:23:48;;;;;;;;;3.50;3.50;;;;;13.16;69.56;99951.00;2096105;28;46621;-63
2023/01/08 00:24:49;;;;;;;;;6.00;6.00;;;;;13.16;69.72;99957.19;2096590;28;46272;-62
2023/01/08 00:25:49;;;;;;;;;7.67;6.00;;;;;13.17;69.55;99953.59;2096697;28;45618;-63
2023/01/08 00:26:50;;;;;;;;;7.33;7.00;;;;;13.17;69.54;99955.38;2097449;28;46625;-63
2023/01/08 00:27:50;;;;;;;;;6.67;6.67;;;;;13.17;69.47;99956.25;2097774;28;46181;-63
2023/01/08 00:28:50;;;;;;;;;5.00;5.00;;;;;13.18;69.37;99954.44;2097532;28;45341;-62
2023/01/08 00:29:51;;;;;;;;;6.67;6.33;;;;;13.18;69.61;99951.78;2088872;28;46307;-63
2023/01/08 00:30:51;;;;;;;;;6.67;6.67;;;;;13.20;69.49;99961.47;2096974;28;46034;-62
2023/01/08 00:31:51;;;;;;;;;7.33;7.33;;;;;13.19;69.53;99956.19;2106292;28;46722;-63
2023/01/08 00:32:52;;;;;;;;;7.67;6.67;;;;;13.19;69.44;99951.75;2098688;28;46690;-64
2023/01/08 00:33:52;;;;;;;;;6.00;6.00;;;;;13.20;69.50;99952.59;2103448;28;46379;-61
2023/01/08 00:34:53;;;;;;;;;6.00;6.00;;;;;13.20;69.42;99953.47;2105937;28;46734;-63
2023/01/08 00:35:53;;;;;;;;;8.50;6.00;;;;;13.19;69.43;99957.06;2106319;28;45289;-64
2023/01/08 00:36:54;;;;;;;;;8.33;7.33;;;;;13.20;69.37;99963.25;2101428;28;46503;-63
2023/01/08 00:37:54;;;;;;;;;7.67;6.00;;;;;13.20;69.24;99961.47;2097982;28;45481;-63
2023/01/08 00:38:54;;;;;;;;;5.33;5.33;;;;;13.19;69.72;99973.06;2104486;28;46262;-62
2023/01/08 00:39:55;;;;;;;;;5.67;5.00;;;;;13.19;69.29;99977.53;2105762;28;46499;-62
2023/01/08 00:40:56;;;;;;;;;6.00;6.00;;;;;13.17;69.18;99961.56;2106169;28;46293;-64
2023/01/08 00:41:57;;;;;;;;;6.00;5.75;;;;;13.15;69.13;99968.78;2090341;28;46855;-62
2023/01/08 00:42:57;;;;;;;;;7.00;7.00;;;;;13.15;69.23;99973.25;2083415;28;46478;-63
2023/01/08 00:43:57;;;;;;;;;6.33;5.67;;;;;13.14;69.02;99951.06;2088652;28;46394;-63
2023/01/08 00:44:57;;;;;;;;;6.67;6.67;;;;;13.14;69.33;99953.72;2088149;28;46498;-62
2023/01/08 00:45:58;;;;;;;;;6.00;6.00;;;;;13.14;69.37;99952.84;2078361;28;46254;-63
2023/01/08 00:46:58;;;;;;;;;5.00;5.00;;;;;13.15;69.38;99966.09;2085833;28;46588;-61
2023/01/08 00:47:59;;;;;;;;;8.67;8.67;;;;;13.14;69.13;99960.84;2095556;28;46355;-62
2023/01/08 00:48:59;;;;;;;;;6.67;5.67;;;;;13.13;69.34;99954.66;2088313;28;46731;-62
2023/01/08 00:50:00;;;;;;;;;5.00;5.00;;;;;13.13;69.25;99952.00;2075134;28;45867;-62
2023/01/08 00:51:01;;;;;;;;;9.00;8.00;;;;;13.14;69.21;99956.38;2076723;28;45720;-63
2023/01/08 00:52:02;;;;;;;;;6.25;6.25;;;;;13.14;69.03;99964.38;2096274;28;47072;-62
2023/01/08 00:53:02;;;;;;;;;8.00;8.00;;;;;13.14;68.88;99956.38;2096559;28;46704;-62
2023/01/08 00:54:03;;;;;;;;;6.33;6.33;;;;;13.13;69.17;99954.66;2089625;28;46706;-62
2023/01/08 00:55:04;;;;;;;;;9.33;7.67;;;;;13.13;69.25;99938.69;2093758;28;47025;-63
2023/01/08 00:56:08;;;;;;;;;6.50;6.00;;;;;13.14;69.21;99948.41;2096074;28;46391;-61
2023/01/08 00:57:08;;;;;;;;;5.75;5.00;;;;;13.13;69.23;99936.00;2089704;28;47162;-64
2023/01/08 00:58:10;;;;;;;;;5.33;5.33;;;;;13.13;69.13;99944.00;2096604;28;45897;-63
2023/01/08 00:59:11;;;;;;;;;5.25;5.25;;;;;13.13;69.24;99936.00;2097299;28;45827;-62
2023/01/08 01:00:13;;;;;;;;;7.00;6.00;;;;;13.13;69.05;99929.81;2090254;28;46740;-62
2023/01/08 01:01:14;;;;;;;;;5.50;5.00;;;;;13.11;69.08;99927.22;2089453;28;46945;-62
2023/01/08 01:02:15;;;;;;;;;3.33;3.33;;;;;13.11;69.38;99924.56;2088457;28;46348;-63
2023/01/08 01:03:15;;;;;;;;;4.67;4.67;;;;;13.11;68.96;99929.91;2088103;28;46690;-63
2023/01/08 01:04:15;;;;;;;;;5.00;5.00;;;;;13.10;69.15;99933.50;2089364;28;46356;-62
2023/01/08 01:05:16;;;;;;;;;5.33;5.33;;;;;13.11;69.12;99929.91;2071769;28;46773;-63
2023/01/08 01:06:16;;;;;;;;;6.00;5.00;;;;;13.11;68.97;99929.03;2072109;28;46357;-63
2023/01/08 01:07:17;;;;;;;;;6.00;5.00;;;;;13.10;69.01;99935.28;2088322;28;46676;-61
2023/01/08 01:08:17;;;;;;;;;6.00;5.25;;;;;13.09;69.18;99930.91;2087335;28;46741;-62
2023/01/08 01:09:18;;;;;;;;;7.00;6.00;;;;;13.07;68.94;99930.94;2090674;28;46666;-62
2023/01/08 01:10:18;;;;;;;;;6.00;6.00;;;;;13.07;68.97;99927.41;2096561;28;45764;-62
2023/01/08 01:11:22;;;;;;;;;6.00;6.00;;;;;13.07;68.95;99930.06;2090935;28;46229;-61
2023/01/08 01:12:22;;;;;;;;;4.25;4.00;;;;;13.07;68.88;99925.63;2088413;28;46025;-62
2023/01/08 01:13:23;;;;;;;;;6.33;5.00;;;;;13.07;68.90;99928.28;2081811;28;46165;-62
2023/01/08 01:14:23;;;;;;;;;8.00;6.00;;;;;13.07;68.83;99924.75;2089415;28;46294;-64
2023/01/08 01:15:24;;;;;;;;;7.00;5.00;;;;;13.06;68.90;99915.91;2106238;27;46502;-62
2023/01/08 01:16:25;;;;;;;;;5.67;5.67;;;;;13.07;68.99;99917.63;2097130;28;46357;-62
2023/01/08 01:17:25;;;;;;;;;3.67;2.33;;;;;13.07;68.98;99925.63;2096578;28;46887;-61
2023/01/08 01:18:26;;;;;;;;;4.00;4.00;;;;;13.07;68.86;99920.28;2105707;27;46791;-61
2023/01/08 01:19:26;;;;;;;;;6.00;4.33;;;;;13.06;68.22;99923.03;2105759;28;47128;-63
2023/01/08 01:20:27;;;;;;;;;3.67;3.67;;;;;13.05;68.78;99922.16;2096554;28;45908;-62
2023/01/08 01:21:29;;;;;;;;;5.00;5.00;;;;;13.05;68.62;99918.63;2096835;28;47063;-62
2023/01/08 01:22:29;;;;;;;;;6.75;6.00;;;;;13.04;68.80;99917.75;2105297;27;46684;-62
2023/01/08 01:23:30;;;;;;;;;5.00;5.00;;;;;13.04;68.83;99925.75;2106079;28;46878;-62
2023/01/08 01:24:30;;;;;;;;;3.00;3.00;;;;;13.03;68.67;99918.69;2113946;27;46674;-62
2023/01/08 01:25:36;;;;;;;;;4.00;4.00;;;;;13.04;68.85;99920.44;2114229;27;46228;-62
2023/01/08 01:26:36;;;;;;;;;4.00;4.00;;;;;13.03;68.83;99917.84;2114488;27;46663;-62
2023/01/08 01:27:37;;;;;;;;;5.00;5.00;;;;;13.06;68.73;99923.03;2113994;27;45153;-62
2023/01/08 01:28:37;;;;;;;;;4.67;4.67;;;;;13.04;68.59;99920.44;2114797;27;45453;-61
2023/01/08 01:29:37;;;;;;;;;6.00;6.00;;;;;13.06;68.64;99920.34;2113714;27;45432;-63
2023/01/08 01:30:38;;;;;;;;;5.67;5.67;;;;;13.06;68.37;99915.03;2114122;27;46919;-61
2023/01/08 01:31:38;;;;;;;;;5.00;4.33;;;;;13.04;68.32;99916.91;2114642;27;46535;-62
2023/01/08 01:32:39;;;;;;;;;5.00;5.00;;;;;13.04;68.56;99916.91;2114730;27;46408;-61
2023/01/08 01:33:40;;;;;;;;;7.00;5.67;;;;;13.03;68.29;99928.50;2113650;27;46330;-62
2023/01/08 01:34:41;;;;;;;;;6.00;4.00;;;;;13.02;68.56;99924.97;2106040;28;46727;-61
2023/01/08 01:35:41;;;;;;;;;5.33;5.00;;;;;13.02;68.55;99916.97;2105576;28;46932;-62
2023/01/08 01:36:41;;;;;;;;;3.67;3.33;;;;;13.01;68.54;99923.25;2105963;27;45021;-61
2023/01/08 01:37:42;;;;;;;;;5.67;5.00;;;;;13.00;68.51;99916.19;2112790;27;46698;-62
2023/01/08 01:38:47;;;;;;;;;4.00;4.00;;;;;13.02;68.57;99929.44;2111985;27;46405;-63
2023/01/08 01:39:47;;;;;;;;;5.75;5.75;;;;;13.01;68.42;99917.03;2114617;27;45642;-63
2023/01/08 01:40:47;;;;;;;;;3.67;3.67;;;;;13.01;68.29;99919.72;2112122;27;46462;-63
2023/01/08 01:41:48;;;;;;;;;7.00;5.00;;;;;13.00;68.21;99923.31;2118849;27;46400;-63
2023/01/08 01:42:48;;;;;;;;;5.00;5.00;;;;;12.98;68.11;99926.03;2114078;27;47004;-62
2023/01/08 01:43:50;;;;;;;;;6.75;5.00;;;;;12.95;68.19;99924.34;2110528;27;46632;-62
2023/01/08 01:44:51;;;;;;;;;6.00;3.00;;;;;12.94;68.25;99927.94;2110126;27;46980;-63
2023/01/08 01:45:51;;;;;;;;;4.00;4.00;;;;;12.95;68.41;99934.16;2103249;27;45762;-62
2023/01/08 01:46:51;;;;;;;;;5.67;5.67;;;;;12.95;68.37;99936.81;2105947;28;46341;-62
2023/01/08 01:47:57;;;;;;;;;6.00;5.33;;;;;12.95;68.49;99943.00;2105647;27;46252;-63
2023/01/08 01:49:02;;;;;;;;;5.00;5.00;;;;;12.96;68.30;99943.91;2112716;27;47147;-61
2023/01/08 01:50:12;;;;;;;;;5.50;5.25;;;;;12.96;68.29;99938.56;2113084;27;46286;-62
2023/01/08 01:51:13;;;;;;;;;5.25;4.25;;;;;12.97;68.55;99937.63;2108960;27;46788;-63
2023/01/08 01:52:13;;;;;;;;;5.00;4.67;;;;;12.98;68.26;99943.81;2106271;28;45970;-62
2023/01/08 01:53:16;;;;;;;;;4.00;4.00;;;;;12.96;68.27;99935.91;2104112;27;46987;-61
2023/01/08 01:54:17;;;;;;;;;6.00;5.00;;;;;12.96;68.31;99927.91;2102279;28;47758;-62
2023/01/08 01:55:18;;;;;;;;;2.25;1.75;;;;;12.96;68.24;99944.75;2111995;27;46784;-61
2023/01/08 01:56:19;;;;;;;;;3.67;3.67;;;;;12.96;68.27;99942.09;2112387;27;46879;-62
2023/01/08 01:57:20;;;;;;;;;5.25;4.75;;;;;12.94;68.18;99938.59;2106158;28;46359;-63
2023/01/08 01:58:23;;;;;;;;;5.00;5.00;;;;;12.95;68.31;99942.13;2111619;27;46710;-62
2023/01/08 01:59:24;;;;;;;;;2.00;2.00;;;;;12.95;68.23;99939.47;2112833;27;45811;-62
2023/01/08 02:00:26;;;;;;;;;4.33;4.00;;;;;12.96;68.34;99936.78;2113889;27;46780;-63
2023/01/08 02:01:28;;;;;;;;;5.50;4.75;;;;;12.96;68.12;99943.91;2113059;27;46827;-63
2023/01/08 02:02:28;;;;;;;;;4.75;4.75;;;;;12.96;67.86;99941.22;2097200;28;46877;-62
2023/01/08 02:03:33;;;;;;;;;3.00;3.00;;;;;12.95;68.05;99945.66;2099359;28;46905;-62
2023/01/08 02:04:34;;;;;;;;;3.50;3.50;;;;;12.95;67.85;99943.00;2108662;27;46257;-62
2023/01/08 02:05:49;;;;;;;;;4.00;3.00;;;;;12.95;67.92;99943.00;2110478;27;46270;-63
2023/01/08 02:07:11;;;;;;;;;3.00;3.00;;;;;12.93;67.93;99946.66;2114049;27;46756;-62
2023/01/08 02:08:24;;;;;;;;;4.75;3.00;;;;;12.92;67.75;99942.28;2107739;27;45943;-62
2023/01/08 02:10:01;;;;;;;;;3.75;3.25;;;;;12.92;68.12;99953.78;2104100;28;46961;-62
2023/01/08 02:11:20;;;;;;;;;3.00;2.50;;;;;12.91;67.94;99959.19;2109230;27;47142;-63
2023/01/08 02:12:27;;;;;;;;;4.25;4.25;;;;;12.91;67.93;99951.19;2113449;27;45280;-62
2023/01/08 02:13:35;;;;;;;;;2.25;2.00;;;;;12.89;67.95;99945.94;2105218;28;45816;-62
2023/01/08 02:14:42;;;;;;;;;3.00;3.00;;;;;12.90;67.89;99954.78;2106390;27;45613;-62
2023/01/08 02:15:59;;;;;;;;;3.00;3.00;;;;;12.88;67.86;99957.53;2113533;27;45803;-62
2023/01/08 02:17:05;;;;;;;;;3.00;3.00;;;;;12.88;67.88;99960.19;2114012;27;46625;-62
2023/01/08 02:18:15;;;;;;;;;3.75;3.75;;;;;12.87;67.57;99953.13;2113393;27;48140;-62
2023/01/08 02:19:35;;;;;;;;;3.50;3.00;;;;;12.88;67.94;99943.34;2113643;27;46344;-63
2023/01/08 02:20:42;;;;;;;;;3.50;2.75;;;;;12.90;67.85;99938.81;2112941;27;47187;-63
2023/01/08 02:22:02;;;;;;;;;4.00;3.00;;;;;12.89;67.79;99947.75;2114315;27;46694;-61
2023/01/08 02:23:17;;;;;;;;;4.00;3.00;;;;;12.89;67.62;99939.75;2088049;28;48333;-61
2023/01/08 02:24:29;;;;;;;;;1.75;1.75;;;;;12.90;67.87;99937.03;2103931;27;46815;-63
2023/01/08 02:25:54;;;;;;;;;3.00;3.00;;;;;12.90;67.68;99945.00;2112780;27;46960;-62
2023/01/08 02:26:58;;;;;;;;;5.25;4.00;;;;;12.91;67.86;99936.09;2114141;27;47214;-62
2023/01/08 02:28:01;;;;;;;;;3.75;3.25;;;;;12.92;67.59;99945.81;2114055;27;46594;-61
2023/01/08 02:29:14;;;;;;;;;2.75;2.75;;;;;12.93;67.66;99947.53;2112902;27;46193;-61
2023/01/08 02:30:15;;;;;;;;;3.00;3.00;;;;;12.95;67.67;99947.47;2114444;27;46064;-62
2023/01/08 02:31:17;;;;;;;;;5.00;3.67;;;;;12.95;67.42;99944.78;2105244;28;46404;-63
2023/01/08 02:32:21;;;;;;;;;3.00;3.00;;;;;12.93;67.37;99944.88;2100021;28;46784;-61
2023/01/08 02:33:23;;;;;;;;;4.00;4.00;;;;;12.92;67.31;99943.13;2098042;27;46505;-62
2023/01/08 02:34:23;;;;;;;;;2.75;2.75;;;;;12.92;67.33;99940.47;2107097;27;46567;-63
2023/01/08 02:35:35;;;;;;;;;3.67;3.00;;;;;12.91;67.33;99951.19;2105757;28;46143;-62
2023/01/08 02:36:38;;;;;;;;;2.00;1.00;;;;;12.91;67.77;99945.88;2105875;28;46229;-62
2023/01/08 02:37:39;;;;;;;;;3.25;3.25;;;;;12.91;67.63;99943.22;2098170;28;45788;-62
2023/01/08 02:38:52;;;;;;;;;3.00;3.00;;;;;12.90;67.65;99949.47;2097163;28;46732;-62
2023/01/08 02:40:09;;;;;;;;;0.00;0.00;;;;;12.90;67.78;99936.16;2097155;28;46602;-63
2023/01/08 02:41:12;;;;;;;;;2.50;2.50;;;;;12.91;67.77;99944.06;2096838;28;47105;-62
2023/01/08 02:42:30;;;;;;;;;3.00;3.00;;;;;12.92;67.86;99936.94;2102765;28;46353;-61
2023/01/08 02:43:52;;;;;;;;;3.25;3.25;;;;;12.95;67.79;99944.78;2103684;28;46783;-62
2023/01/08 02:45:10;;;;;;;;;5.25;4.75;;;;;12.96;67.94;99941.22;2097199;28;46831;-62
2023/01/08 02:46:16;;;;;;;;;3.50;3.00;;;;;12.96;67.61;99938.56;2096156;28;46422;-62
2023/01/08 02:47:52;;;;;;;;;5.25;3.00;;;;;12.95;67.76;99936.81;2094383;28;46616;-62
2023/01/08 02:48:58;;;;;;;;;2.50;2.00;;;;;12.95;67.86;99940.34;2078917;28;46475;-62
2023/01/08 02:50:32;;;;;;;;;1.25;1.25;;;;;12.94;67.83;99938.59;2071339;28;46652;-62
2023/01/08 02:51:38;;;;;;;;;4.75;3.00;;;;;12.92;67.74;99937.81;2075640;28;46844;-62
2023/01/08 02:53:09;;;;;;;;;5.50;3.50;;;;;12.90;67.95;99934.34;2079488;28;46508;-63
2023/01/08 02:54:15;;;;;;;;;1.75;1.75;;;;;12.90;67.93;99937.03;2062850;28;46921;-62
2023/01/08 02:55:17;;;;;;;;;2.50;2.50;;;;;12.90;68.10;99942.34;2058028;28;46774;-63
2023/01/08 02:56:23;;;;;;;;;2.75;2.75;;;;;12.90;67.89;99928.16;2054490;28;46960;-61
2023/01/08 02:57:25;;;;;;;;;2.75;2.75;;;;;12.91;67.95;99924.56;2046734;28;46756;-62
2023/01/08 02:58:30;;;;;;;;;4.25;3.25;;;;;12.92;68.02;99923.63;2047529;28;46676;-62
2023/01/08 02:59:32;;;;;;;;;3.25;3.00;;;;;12.91;67.95;99930.75;2054854;28;46687;-62
2023/01/08 03:00:34;;;;;;;;;1.00;1.00;;;;;12.91;67.98;99928.09;2047143;28;46580;-61
2023/01/08 03:01:35;;;;;;;;;2.00;2.00;;;;;12.93;67.84;99933.34;2046783;28;46740;-62
2023/01/08 03:02:38;;;;;;;;;3.00;3.00;;;;;12.92;67.91;99932.50;2054946;28;46491;-62
2023/01/08 03:03:43;;;;;;;;;5.25;4.50;;;;;12.93;68.03;99934.22;2054088;28;45837;-61
2023/01/08 03:04:51;;;;;;;;;4.75;3.50;;;;;12.94;68.08;99933.28;2055206;28;46449;-61
2023/01/08 03:05:56;;;;;;;;;3.00;3.00;;;;;12.95;68.05;99920.81;2047178;28;45088;-62
2023/01/08 03:06:57;;;;;;;;;3.25;3.25;;;;;12.96;67.99;99926.13;2051347;28;46436;-61
2023/01/08 03:07:57;;;;;;;;;1.00;1.00;;;;;12.98;68.02;99919.84;2055569;28;46404;-62
2023/01/08 03:08:59;;;;;;;;;2.33;2.33;;;;;12.96;67.80;99922.59;2062980;28;45980;-61
2023/01/08 03:10:00;;;;;;;;;3.50;2.00;;;;;12.96;67.96;99922.59;2059648;28;46760;-61
2023/01/08 03:11:06;;;;;;;;;2.00;2.00;;;;;12.97;68.15;99921.66;2055038;28;46700;-63
2023/01/08 03:12:23;;;;;;;;;3.75;3.75;;;;;12.99;67.99;99926.91;2054265;28;46649;-61
2023/01/08 03:13:31;;;;;;;;;3.00;3.00;;;;;12.99;67.92;99916.25;2054702;28;46505;-62
2023/01/08 03:14:40;;;;;;;;;4.25;4.25;;;;;13.01;67.97;99917.03;2055141;28;46763;-62
2023/01/08 03:15:47;;;;;;;;;4.75;3.50;;;;;13.01;68.06;99909.91;2055350;28;46748;-64
2023/01/08 03:16:54;;;;;;;;;3.25;2.00;;;;;13.02;68.11;99914.31;2055015;28;46428;-62
2023/01/08 03:18:01;;;;;;;;;2.00;2.00;;;;;13.01;67.82;99903.72;2055447;28;45150;-61
2023/01/08 03:19:12;;;;;;;;;3.50;2.75;;;;;13.03;67.79;99912.50;2062777;28;46338;-62
2023/01/08 03:20:19;;;;;;;;;2.00;2.00;;;;;13.02;67.86;99906.31;2057222;28;46466;-62
2023/01/08 03:21:21;;;;;;;;;2.50;2.50;;;;;13.04;67.79;99911.56;2056309;28;47708;-62
2023/01/08 03:22:23;;;;;;;;;1.50;1.50;;;;;13.05;67.89;99899.97;2063544;28;46115;-63
2023/01/08 03:23:26;;;;;;;;;2.00;2.00;;;;;13.05;67.80;99910.63;2056878;28;45653;-63
2023/01/08 03:24:32;;;;;;;;;1.75;1.75;;;;;13.06;67.72;99901.72;2054853;28;46399;-62
2023/01/08 03:25:36;;;;;;;;;3.00;3.00;;;;;13.04;67.74;99904.44;2057467;28;46421;-62
2023/01/08 03:26:39;;;;;;;;;2.75;2.75;;;;;13.04;67.52;99909.78;2076619;28;46430;-61
2023/01/08 03:27:46;;;;;;;;;3.50;2.00;;;;;13.02;67.63;99903.66;2078593;28;45568;-62
2023/01/08 03:28:51;;;;;;;;;3.00;3.00;;;;;13.03;67.90;99905.38;2071420;28;47212;-62
2023/01/08 03:29:55;;;;;;;;;4.00;1.50;;;;;13.02;67.98;99898.34;2070981;28;46539;-62
2023/01/08 03:30:57;;;;;;;;;3.00;3.00;;;;;13.04;67.91;99903.59;2071053;28;46362;-63
2023/01/08 03:32:03;;;;;;;;;3.50;2.00;;;;;13.02;67.85;99901.00;2091340;28;45746;-62
2023/01/08 03:33:08;;;;;;;;;2.00;2.00;;;;;13.03;67.89;99905.38;2107991;27;46823;-63
2023/01/08 03:34:11;;;;;;;;;2.50;2.00;;;;;13.03;67.78;99908.03;2112741;27;46209;-62
2023/01/08 03:35:18;;;;;;;;;3.00;3.00;;;;;13.03;67.98;99900.06;2096343;28;46399;-62
2023/01/08 03:36:23;;;;;;;;;3.75;3.00;;;;;13.03;67.98;99900.06;2102499;27;47149;-62
2023/01/08 03:37:28;;;;;;;;;1.25;1.25;;;;;13.03;67.87;99907.19;2112147;27;46718;-62
2023/01/08 03:38:38;;;;;;;;;4.00;4.00;;;;;13.03;67.94;99901.84;2105704;28;46521;-62
2023/01/08 03:39:45;;;;;;;;;2.00;2.00;;;;;13.02;67.82;99901.00;2105133;28;46499;-62
2023/01/08 03:40:51;;;;;;;;;2.75;2.75;;;;;13.00;67.79;99886.88;2105085;28;46645;-62
2023/01/08 03:41:54;;;;;;;;;2.00;2.00;;;;;13.00;67.72;99894.88;2104814;28;46757;-62
2023/01/08 03:42:56;;;;;;;;;2.00;2.00;;;;;12.99;67.66;99908.25;2104763;28;46683;-62
2023/01/08 03:43:57;;;;;;;;;1.50;1.50;;;;;12.97;67.70;99895.03;2109847;27;46707;-62
2023/01/08 03:45:01;;;;;;;;;2.00;2.00;;;;;12.96;67.69;99904.81;2107384;27;45522;-63
2023/01/08 03:46:07;;;;;;;;;3.00;2.00;;;;;12.95;67.72;99911.03;2106946;27;46943;-60
2023/01/08 03:47:09;;;;;;;;;2.00;2.00;;;;;12.94;67.75;99903.13;2109742;27;46382;-62
2023/01/08 03:48:10;;;;;;;;;3.25;2.00;;;;;12.91;67.81;99890.81;2107271;27;46405;-63
2023/01/08 03:49:11;;;;;;;;;2.33;2.33;;;;;12.90;67.92;99897.06;2107195;27;46794;-62
2023/01/08 03:50:16;;;;;;;;;2.00;2.00;;;;;12.90;67.87;99891.75;2109232;27;45896;-62
2023/01/08 03:51:17;;;;;;;;;1.00;1.00;;;;;12.89;68.06;99894.47;2106120;27;46580;-63
2023/01/08 03:52:29;;;;;;;;;2.75;2.75;;;;;12.88;67.96;99887.44;2108750;27;46786;-62
2023/01/08 03:53:30;;;;;;;;;2.50;2.50;;;;;12.89;67.89;99889.16;2104337;27;46657;-62
2023/01/08 03:54:33;;;;;;;;;1.00;1.00;;;;;12.89;68.04;99894.47;2100626;27;46156;-62
2023/01/08 03:55:33;;;;;;;;;1.50;1.50;;;;;12.89;68.01;99890.03;2104972;28;46724;-62
2023/01/08 03:56:33;;;;;;;;;3.00;2.00;;;;;12.90;67.97;99891.75;2106195;27;46341;-62
2023/01/08 03:57:34;;;;;;;;;3.00;3.00;;;;;12.92;68.04;99889.00;2104664;28;46881;-62
2023/01/08 03:58:34;;;;;;;;;2.33;2.33;;;;;12.91;68.00;99893.47;2106157;27;46145;-63
2023/01/08 03:59:34;;;;;;;;;1.00;1.00;;;;;12.92;67.94;99895.19;2105238;27;45725;-61
2023/01/08 04:00:35;;;;;;;;;2.67;2.67;;;;;12.92;67.90;99897.88;2095264;28;45507;-63
2023/01/08 04:01:35;;;;;;;;;1.67;1.67;;;;;12.92;67.86;99889.00;2096009;28;46746;-63
2023/01/08 04:02:36;;;;;;;;;1.00;1.00;;;;;12.93;67.92;99882.75;2105110;27;46315;-63
2023/01/08 04:03:36;;;;;;;;;2.00;2.00;;;;;12.92;67.92;99886.34;2104856;27;46340;-62
2023/01/08 04:04:37;;;;;;;;;2.00;2.00;;;;;12.92;67.95;99889.00;2105197;27;46698;-61
2023/01/08 04:05:37;;;;;;;;;1.33;1.33;;;;;12.92;67.93;99889.00;2105170;28;45444;-62
2023/01/08 04:06:37;;;;;;;;;1.00;1.00;;;;;12.91;67.80;99881.97;2104740;27;46584;-62
2023/01/08 04:07:38;;;;;;;;;2.33;2.33;;;;;12.90;67.97;99883.75;2105285;27;46371;-62
2023/01/08 04:08:38;;;;;;;;;2.67;2.67;;;;;12.91;67.96;99884.63;2095971;28;46201;-62
2023/01/08 04:09:38;;;;;;;;;1.33;1.33;;;;;12.91;67.98;99876.63;2095749;28;47019;-61
2023/01/08 04:10:39;;;;;;;;;2.00;2.00;;;;;12.90;67.90;99886.41;2096083;27;46226;-62
2023/01/08 04:11:39;;;;;;;;;2.67;2.67;;;;;12.90;67.97;99872.25;2112982;27;46409;-63
2023/01/08 04:12:42;;;;;;;;;4.00;3.00;;;;;12.89;68.12;99871.38;2113126;27;46586;-62
2023/01/08 04:13:42;;;;;;;;;2.00;0.25;;;;;12.88;67.75;99853.69;2113568;27;46258;-61
2023/01/08 04:14:43;;;;;;;;;5.00;4.00;;;;;12.87;67.86;99862.59;2113421;27;46163;-61
2023/01/08 04:15:48;;;;;;;;;3.00;2.33;;;;;12.86;67.70;99857.34;2111278;27;46395;-62
2023/01/08 04:16:48;;;;;;;;;2.00;2.00;;;;;12.85;67.83;99858.28;2104960;28;46790;-62
2023/01/08 04:17:49;;;;;;;;;2.33;2.33;;;;;12.84;67.86;99856.56;2095170;28;46628;-61
2023/01/08 04:18:49;;;;;;;;;1.00;1.00;;;;;12.85;67.92;99858.28;2095449;28;46017;-62
2023/01/08 04:19:49;;;;;;;;;4.00;2.00;;;;;12.85;67.93;99853.81;2104408;28;45580;-62
2023/01/08 04:20:50;;;;;;;;;4.00;2.00;;;;;12.85;68.14;99853.81;2104952;27;46357;-62
2023/01/08 04:21:51;;;;;;;;;4.33;2.00;;;;;12.88;68.15;99860.81;2104764;28;46731;-63
2023/01/08 04:22:51;;;;;;;;;1.50;1.00;;;;;12.87;68.08;99854.63;2112433;27;46172;-62
2023/01/08 04:23:53;;;;;;;;;4.00;2.33;;;;;12.86;67.85;99850.22;2113077;27;46256;-61
2023/01/08 04:24:53;;;;;;;;;3.25;2.00;;;;;12.86;67.99;99852.03;2113306;27;46751;-61
2023/01/08 04:25:54;;;;;;;;;1.00;1.00;;;;;12.86;67.81;99846.69;2107180;27;46792;-61
2023/01/08 04:26:54;;;;;;;;;2.00;2.00;;;;;12.86;67.80;99838.72;2095896;28;46258;-62
2023/01/08 04:27:55;;;;;;;;;2.00;2.00;;;;;12.86;67.89;99842.22;2095805;28;46422;-63
2023/01/08 04:28:55;;;;;;;;;1.33;1.33;;;;;12.86;67.81;99836.03;2100752;27;46594;-61
2023/01/08 04:29:55;;;;;;;;;3.00;2.00;;;;;12.86;67.88;99842.22;2104859;28;46697;-62
2023/01/08 04:30:55;;;;;;;;;3.00;2.00;;;;;12.85;67.83;99837.84;2112742;27;46634;-62
2023/01/08 04:31:56;;;;;;;;;1.00;1.00;;;;;12.85;67.77;99839.66;2113097;27;45586;-63
2023/01/08 04:32:56;;;;;;;;;2.33;2.33;;;;;12.85;67.97;99837.84;2105203;27;46412;-61
2023/01/08 04:33:56;;;;;;;;;1.67;1.67;;;;;12.85;67.73;99836.97;2107213;27;46576;-61
2023/01/08 04:34:57;;;;;;;;;2.00;1.00;;;;;12.84;67.82;99829.94;2112508;27;46443;-62
2023/01/08 04:35:57;;;;;;;;;1.00;1.00;;;;;12.85;67.92;99835.19;2096149;28;46471;-62
2023/01/08 04:36:58;;;;;;;;;4.00;4.00;;;;;12.86;67.74;99838.72;2096459;28;47117;-62
2023/01/08 04:37:58;;;;;;;;;2.00;2.00;;;;;12.86;67.91;99831.59;2113070;27;46162;-62
2023/01/08 04:38:58;;;;;;;;;2.00;2.00;;;;;12.87;68.01;99829.78;2109868;27;46193;-63
2023/01/08 04:39:59;;;;;;;;;1.00;1.00;;;;;12.86;67.80;99826.25;2101441;28;46460;-61
2023/01/08 04:41:00;;;;;;;;;2.67;2.00;;;;;12.86;67.85;99825.41;2103716;28;46794;-62
2023/01/08 04:42:01;;;;;;;;;2.75;2.75;;;;;12.86;67.89;99830.72;2109639;27;47010;-61
2023/01/08 04:43:01;;;;;;;;;2.33;2.33;;;;;12.85;67.63;99834.31;2112925;27;46578;-64
2023/01/08 04:44:01;;;;;;;;;2.67;2.67;;;;;12.84;67.88;99825.47;2112999;27;46605;-62
2023/01/08 04:45:02;;;;;;;;;1.00;1.00;;;;;12.83;67.87;99825.50;2110019;27;46678;-62
2023/01/08 04:46:06;;;;;;;;;1.67;1.67;;;;;12.83;67.94;99825.50;2113363;27;46285;-62
2023/01/08 04:47:06;;;;;;;;;3.00;2.25;;;;;12.83;68.03;99822.84;2110083;27;46417;-62
2023/01/08 04:48:06;;;;;;;;;3.33;3.33;;;;;12.83;67.92;99822.84;2107829;27;46568;-62
2023/01/08 04:49:07;;;;;;;;;1.67;1.67;;;;;12.82;67.89;99821.13;2106350;27;46348;-62
2023/01/08 04:50:07;;;;;;;;;2.00;2.00;;;;;12.81;67.91;99819.41;2108603;27;46616;-62
2023/01/08 04:51:08;;;;;;;;;1.33;1.33;;;;;12.82;68.08;99818.47;2108567;27;46889;-62
2023/01/08 04:52:08;;;;;;;;;2.00;1.00;;;;;12.82;67.83;99808.66;2111552;27;46475;-63
2023/01/08 04:53:08;;;;;;;;;2.67;2.00;;;;;12.82;68.12;99818.47;2110456;27;46960;-62
2023/01/08 04:54:09;;;;;;;;;1.00;1.00;;;;;12.82;67.83;99814.00;2104854;28;46348;-62
2023/01/08 04:55:09;;;;;;;;;1.00;1.00;;;;;12.81;68.02;99811.41;2109988;27;46039;-61
2023/01/08 04:56:10;;;;;;;;;1.00;1.00;;;;;12.81;68.05;99812.28;2112855;27;46720;-62
2023/01/08 04:57:10;;;;;;;;;2.67;2.00;;;;;12.80;68.07;99815.88;2103948;28;46473;-62
2023/01/08 04:58:11;;;;;;;;;2.67;2.67;;;;;12.81;67.94;99820.25;2104367;27;46625;-61